sensor_id;sensor_type;location;lat;lon;timestamp;pressure;altitude;pressure_sealevel;temperature;humidity
40948;BME280;49382;-25.924;28.194;2023-01-29T00:01:02;84577.20;;;26.31;30.68
40948;BME280;49382;-25.924;28.194;2023-01-29T00:03:23;84576.01;;;26.53;30.83
40948;BME280;49382;-25.924;28.194;2023-01-29T00:05:49;84577.22;;;25.34;32.95
40948;BME280;49382;-25.924;28.194;2023-01-29T00:08:14;84574.94;;;25.41;32.32
40948;BME280;49382;-25.924;28.194;2023-01-29T00:10:40;84576.37;;;27.08;29.35
40948;BME280;49382;-25.924;28.194;2023-01-29T00:13:05;84573.96;;;26.84;29.32
40948;BME280;49382;-25.924;28.194;2023-01-29T00:15:30;84568.52;;;25.88;32.49
40948;BME280;49382;-25.924;28.194;2023-01-29T00:17:56;84567.86;;;25.34;32.87
40948;BME280;49382;-25.924;28.194;2023-01-29T00:20:21;84566.79;;;25.07;33.77
40948;BME280;49382;-25.924;28.194;2023-01-29T00:22:46;84564.49;;;25.97;32.99
40948;BME280;49382;-25.924;28.194;2023-01-29T00:25:11;84563.13;;;25.13;32.24
40948;BME280;49382;-25.924;28.194;2023-01-29T00:27:37;84563.69;;;25.03;32.83
40948;BME280;49382;-25.924;28.194;2023-01-29T00:30:03;84563.84;;;25.24;32.79
40948;BME280;49382;-25.924;28.194;2023-01-29T00:32:28;84564.50;;;25.02;32.93
40948;BME280;49382;-25.924;28.194;2023-01-29T00:34:55;84559.75;;;25.33;32.79
40948;BME280;49382;-25.924;28.194;2023-01-29T00:37:20;84558.37;;;25.76;32.28
40948;BME280;49382;-25.924;28.194;2023-01-29T00:39:45;84557.29;;;25.40;33.06
40948;BME280;49382;-25.924;28.194;2023-01-29T00:42:11;84555.10;;;24.88;34.17
40948;BME280;49382;-25.924;28.194;2023-01-29T00:44:36;84552.75;;;25.82;32.51
40948;BME280;49382;-25.924;28.194;2023-01-29T00:47:02;84552.29;;;25.53;32.67
40948;BME280;49382;-25.924;28.194;2023-01-29T00:49:27;84554.75;;;26.67;29.54
40948;BME280;49382;-25.924;28.194;2023-01-29T00:51:53;84549.88;;;25.97;30.12
40948;BME280;49382;-25.924;28.194;2023-01-29T00:54:18;84548.07;;;25.50;31.71
40948;BME280;49382;-25.924;28.194;2023-01-29T00:56:43;84547.68;;;25.12;33.03
40948;BME280;49382;-25.924;28.194;2023-01-29T00:59:09;84545.13;;;25.37;32.21
40948;BME280;49382;-25.924;28.194;2023-01-29T01:01:34;84544.38;;;26.12;30.48
40948;BME280;49382;-25.924;28.194;2023-01-29T01:03:59;84550.56;;;25.01;33.68
40948;BME280;49382;-25.924;28.194;2023-01-29T01:06:25;84550.89;;;24.90;34.79
40948;BME280;49382;-25.924;28.194;2023-01-29T01:08:51;84551.29;;;25.01;34.37
40948;BME280;49382;-25.924;28.194;2023-01-29T01:11:16;84549.51;;;25.64;31.52
40948;BME280;49382;-25.924;28.194;2023-01-29T01:13:42;84552.04;;;25.66;34.10
40948;BME280;49382;-25.924;28.194;2023-01-29T01:16:09;84553.28;;;26.48;31.79
40948;BME280;49382;-25.924;28.194;2023-01-29T01:18:33;84555.42;;;26.24;30.88
40948;BME280;49382;-25.924;28.194;2023-01-29T01:20:59;84554.42;;;26.36;31.22
40948;BME280;49382;-25.924;28.194;2023-01-29T01:23:25;84560.06;;;27.03;31.51
40948;BME280;49382;-25.924;28.194;2023-01-29T01:25:50;84560.23;;;27.28;31.37
40948;BME280;49382;-25.924;28.194;2023-01-29T01:28:16;84563.29;;;26.91;31.61
40948;BME280;49382;-25.924;28.194;2023-01-29T01:30:42;84568.98;;;26.62;32.17
40948;BME280;49382;-25.924;28.194;2023-01-29T01:33:07;84573.36;;;27.78;30.27
40948;BME280;49382;-25.924;28.194;2023-01-29T01:35:33;84567.42;;;25.93;30.89
40948;BME280;49382;-25.924;28.194;2023-01-29T01:37:59;84570.24;;;26.89;28.70
40948;BME280;49382;-25.924;28.194;2023-01-29T01:40:25;84572.82;;;26.65;28.42
40948;BME280;49382;-25.924;28.194;2023-01-29T01:42:51;84581.45;;;27.79;27.69
40948;BME280;49382;-25.924;28.194;2023-01-29T01:45:21;84579.27;;;26.50;29.47
40948;BME280;49382;-25.924;28.194;2023-01-29T01:47:44;84583.57;;;26.57;28.83
40948;BME280;49382;-25.924;28.194;2023-01-29T01:50:11;84581.68;;;26.08;29.23
40948;BME280;49382;-25.924;28.194;2023-01-29T01:52:32;84587.12;;;26.41;28.68
40948;BME280;49382;-25.924;28.194;2023-01-29T01:54:58;84589.50;;;26.61;29.38
40948;BME280;49382;-25.924;28.194;2023-01-29T01:57:25;84592.91;;;26.92;28.59
40948;BME280;49382;-25.924;28.194;2023-01-29T01:59:54;84594.21;;;26.83;28.45
40948;BME280;49382;-25.924;28.194;2023-01-29T02:02:15;84597.93;;;25.91;32.68
40948;BME280;49382;-25.924;28.194;2023-01-29T02:04:45;84596.93;;;25.61;30.95
40948;BME280;49382;-25.924;28.194;2023-01-29T02:07:08;84599.14;;;26.25;31.27
40948;BME280;49382;-25.924;28.194;2023-01-29T02:09:36;84600.84;;;27.10;28.69
40948;BME280;49382;-25.924;28.194;2023-01-29T02:11:57;84601.38;;;25.61;32.67
40948;BME280;49382;-25.924;28.194;2023-01-29T02:14:22;84603.56;;;27.64;29.63
40948;BME280;49382;-25.924;28.194;2023-01-29T02:16:48;84603.60;;;26.81;27.92
40948;BME280;49382;-25.924;28.194;2023-01-29T02:19:21;84609.42;;;27.69;26.55
40948;BME280;49382;-25.924;28.194;2023-01-29T02:21:51;84615.32;;;27.33;26.54
40948;BME280;49382;-25.924;28.194;2023-01-29T02:29:00;84625.30;;;25.64;30.09
40948;BME280;49382;-25.924;28.194;2023-01-29T02:31:28;84630.85;;;26.75;29.50
40948;BME280;49382;-25.924;28.194;2023-01-29T02:33:57;84629.78;;;26.42;29.74
40948;BME280;49382;-25.924;28.194;2023-01-29T02:36:21;84629.09;;;25.70;30.04
40948;BME280;49382;-25.924;28.194;2023-01-29T02:38:43;84628.48;;;26.55;29.00
40948;BME280;49382;-25.924;28.194;2023-01-29T02:41:07;84632.21;;;26.79;28.02
40948;BME280;49382;-25.924;28.194;2023-01-29T02:43:35;84632.72;;;26.36;28.75
40948;BME280;49382;-25.924;28.194;2023-01-29T02:46:01;84636.77;;;26.47;28.96
40948;BME280;49382;-25.924;28.194;2023-01-29T02:48:22;84638.12;;;26.69;28.40
40948;BME280;49382;-25.924;28.194;2023-01-29T02:50:50;84644.17;;;26.80;28.27
40948;BME280;49382;-25.924;28.194;2023-01-29T02:53:15;84650.68;;;26.47;27.97
40948;BME280;49382;-25.924;28.194;2023-01-29T02:55:41;84655.85;;;27.38;26.82
40948;BME280;49382;-25.924;28.194;2023-01-29T02:58:06;84657.22;;;27.16;26.54
40948;BME280;49382;-25.924;28.194;2023-01-29T03:00:32;84661.92;;;27.60;25.90
40948;BME280;49382;-25.924;28.194;2023-01-29T03:02:57;84656.97;;;26.74;27.10
40948;BME280;49382;-25.924;28.194;2023-01-29T03:05:26;84660.44;;;27.45;26.74
40948;BME280;49382;-25.924;28.194;2023-01-29T03:07:49;84661.99;;;27.03;27.39
40948;BME280;49382;-25.924;28.194;2023-01-29T03:10:16;84668.72;;;26.94;26.62
40948;BME280;49382;-25.924;28.194;2023-01-29T03:12:39;84668.79;;;27.06;26.92
40948;BME280;49382;-25.924;28.194;2023-01-29T03:15:04;84670.04;;;28.33;25.90
40948;BME280;49382;-25.924;28.194;2023-01-29T03:17:32;84667.31;;;27.49;26.48
40948;BME280;49382;-25.924;28.194;2023-01-29T03:19:53;84661.98;;;26.66;27.07
40948;BME280;49382;-25.924;28.194;2023-01-29T03:22:19;84665.47;;;27.56;26.27
40948;BME280;49382;-25.924;28.194;2023-01-29T03:24:46;84664.25;;;27.22;27.05
40948;BME280;49382;-25.924;28.194;2023-01-29T03:27:11;84667.98;;;25.99;28.61
40948;BME280;49382;-25.924;28.194;2023-01-29T03:29:36;84667.97;;;27.08;27.37
40948;BME280;49382;-25.924;28.194;2023-01-29T03:32:01;84675.28;;;27.40;26.94
40948;BME280;49382;-25.924;28.194;2023-01-29T03:34:29;84676.20;;;27.04;28.32
40948;BME280;49382;-25.924;28.194;2023-01-29T03:36:55;84676.11;;;27.73;27.36
40948;BME280;49382;-25.924;28.194;2023-01-29T03:39:18;84682.25;;;27.71;27.24
40948;BME280;49382;-25.924;28.194;2023-01-29T03:41:46;84681.03;;;27.38;27.59
40948;BME280;49382;-25.924;28.194;2023-01-29T03:44:14;84691.81;;;27.43;27.43
40948;BME280;49382;-25.924;28.194;2023-01-29T03:46:38;84696.15;;;26.95;27.89
40948;BME280;49382;-25.924;28.194;2023-01-29T03:49:05;84691.46;;;27.16;28.36
40948;BME280;49382;-25.924;28.194;2023-01-29T03:51:30;84694.19;;;25.70;29.54
40948;BME280;49382;-25.924;28.194;2023-01-29T03:53:54;84697.16;;;26.04;29.20
40948;BME280;49382;-25.924;28.194;2023-01-29T03:56:28;84702.88;;;26.13;28.86
40948;BME280;49382;-25.924;28.194;2023-01-29T03:58:46;84706.49;;;26.34;28.47
40948;BME280;49382;-25.924;28.194;2023-01-29T04:01:13;84707.36;;;26.28;28.63
40948;BME280;49382;-25.924;28.194;2023-01-29T04:03:35;84717.90;;;26.83;28.44
40948;BME280;49382;-25.924;28.194;2023-01-29T04:06:05;84720.87;;;26.99;28.15
40948;BME280;49382;-25.924;28.194;2023-01-29T04:08:27;84722.80;;;27.45;27.77
40948;BME280;49382;-25.924;28.194;2023-01-29T04:10:50;84729.72;;;27.40;28.13
40948;BME280;49382;-25.924;28.194;2023-01-29T04:13:17;84733.17;;;26.09;29.77
40948;BME280;49382;-25.924;28.194;2023-01-29T04:15:45;84732.03;;;26.20;29.59
40948;BME280;49382;-25.924;28.194;2023-01-29T04:18:07;84736.47;;;26.21;29.42
40948;BME280;49382;-25.924;28.194;2023-01-29T04:20:32;84740.62;;;27.17;28.45
40948;BME280;49382;-25.924;28.194;2023-01-29T04:22:57;84743.72;;;27.89;27.69
40948;BME280;49382;-25.924;28.194;2023-01-29T04:25:27;84749.06;;;26.93;28.55
40948;BME280;49382;-25.924;28.194;2023-01-29T04:27:55;84754.26;;;26.03;29.97
40948;BME280;49382;-25.924;28.194;2023-01-29T04:30:22;84760.23;;;26.36;30.18
40948;BME280;49382;-25.924;28.194;2023-01-29T04:32:50;84764.65;;;25.87;31.20
40948;BME280;49382;-25.924;28.194;2023-01-29T04:35:13;84766.61;;;26.45;31.42
40948;BME280;49382;-25.924;28.194;2023-01-29T04:37:35;84765.33;;;26.95;30.55
40948;BME280;49382;-25.924;28.194;2023-01-29T04:40:01;84769.48;;;26.82;29.62
40948;BME280;49382;-25.924;28.194;2023-01-29T04:42:28;84766.13;;;26.98;29.29
40948;BME280;49382;-25.924;28.194;2023-01-29T04:44:52;84772.67;;;26.89;29.19
40948;BME280;49382;-25.924;28.194;2023-01-29T04:47:18;84781.81;;;27.61;27.85
40948;BME280;49382;-25.924;28.194;2023-01-29T04:49:44;84787.93;;;26.82;29.07
40948;BME280;49382;-25.924;28.194;2023-01-29T04:52:08;84797.28;;;26.63;28.98
40948;BME280;49382;-25.924;28.194;2023-01-29T04:54:41;84810.53;;;26.51;29.27
40948;BME280;49382;-25.924;28.194;2023-01-29T04:57:05;84815.01;;;26.63;28.84
40948;BME280;49382;-25.924;28.194;2023-01-29T04:59:25;84817.18;;;26.68;30.04
40948;BME280;49382;-25.924;28.194;2023-01-29T05:01:47;84814.87;;;27.20;28.91
40948;BME280;49382;-25.924;28.194;2023-01-29T05:04:14;84814.93;;;25.95;29.34
40948;BME280;49382;-25.924;28.194;2023-01-29T05:06:37;84820.93;;;25.62;29.54
40948;BME280;49382;-25.924;28.194;2023-01-29T05:09:03;84821.75;;;26.06;28.91
40948;BME280;49382;-25.924;28.194;2023-01-29T05:11:31;84816.37;;;25.51;29.65
40948;BME280;49382;-25.924;28.194;2023-01-29T05:13:54;84820.77;;;26.01;30.80
40948;BME280;49382;-25.924;28.194;2023-01-29T05:16:22;84823.07;;;25.76;30.40
40948;BME280;49382;-25.924;28.194;2023-01-29T05:18:45;84826.34;;;25.35;31.47
40948;BME280;49382;-25.924;28.194;2023-01-29T05:21:10;84826.60;;;25.53;31.33
40948;BME280;49382;-25.924;28.194;2023-01-29T05:23:36;84830.35;;;25.82;30.89
40948;BME280;49382;-25.924;28.194;2023-01-29T05:26:02;84830.82;;;26.45;29.66
40948;BME280;49382;-25.924;28.194;2023-01-29T05:28:27;84835.73;;;25.79;30.29
40948;BME280;49382;-25.924;28.194;2023-01-29T05:30:54;84836.95;;;25.79;30.78
40948;BME280;49382;-25.924;28.194;2023-01-29T05:33:20;84845.38;;;26.16;30.76
40948;BME280;49382;-25.924;28.194;2023-01-29T05:35:44;84846.18;;;25.57;31.89
40948;BME280;49382;-25.924;28.194;2023-01-29T05:38:10;84850.11;;;26.01;31.15
40948;BME280;49382;-25.924;28.194;2023-01-29T05:40:36;84851.22;;;26.27;31.19
40948;BME280;49382;-25.924;28.194;2023-01-29T05:43:01;84853.05;;;25.42;32.39
40948;BME280;49382;-25.924;28.194;2023-01-29T05:45:27;84861.85;;;26.15;32.02
40948;BME280;49382;-25.924;28.194;2023-01-29T05:47:56;84866.61;;;25.56;31.77
40948;BME280;49382;-25.924;28.194;2023-01-29T05:50:17;84874.28;;;26.50;30.59
40948;BME280;49382;-25.924;28.194;2023-01-29T05:52:42;84879.77;;;26.21;31.94
40948;BME280;49382;-25.924;28.194;2023-01-29T05:55:09;84884.87;;;26.22;31.89
40948;BME280;49382;-25.924;28.194;2023-01-29T05:57:34;84886.18;;;26.52;31.00
40948;BME280;49382;-25.924;28.194;2023-01-29T06:00:00;84885.97;;;26.49;31.42
40948;BME280;49382;-25.924;28.194;2023-01-29T06:02:29;84887.66;;;26.58;31.31
40948;BME280;49382;-25.924;28.194;2023-01-29T06:04:51;84887.06;;;26.78;30.15
40948;BME280;49382;-25.924;28.194;2023-01-29T06:07:17;84893.46;;;26.50;30.09
40948;BME280;49382;-25.924;28.194;2023-01-29T06:09:42;84895.83;;;28.38;28.58
40948;BME280;49382;-25.924;28.194;2023-01-29T06:12:08;84892.79;;;26.63;29.41
40948;BME280;49382;-25.924;28.194;2023-01-29T06:14:34;84887.22;;;26.82;29.15
40948;BME280;49382;-25.924;28.194;2023-01-29T06:16:59;84887.53;;;26.92;29.95
40948;BME280;49382;-25.924;28.194;2023-01-29T06:19:25;84886.20;;;27.46;30.30
40948;BME280;49382;-25.924;28.194;2023-01-29T06:21:51;84885.19;;;28.22;29.05
40948;BME280;49382;-25.924;28.194;2023-01-29T06:24:16;84879.95;;;28.04;27.29
40948;BME280;49382;-25.924;28.194;2023-01-29T06:26:41;84878.14;;;26.81;29.06
40948;BME280;49382;-25.924;28.194;2023-01-29T06:29:07;84878.31;;;27.13;28.08
40948;BME280;49382;-25.924;28.194;2023-01-29T06:31:33;84886.78;;;28.61;28.78
40948;BME280;49382;-25.924;28.194;2023-01-29T06:33:58;84884.10;;;27.62;28.51
40948;BME280;49382;-25.924;28.194;2023-01-29T06:36:23;84882.72;;;27.92;27.63
40948;BME280;49382;-25.924;28.194;2023-01-29T06:38:49;84884.42;;;29.77;26.01
40948;BME280;49382;-25.924;28.194;2023-01-29T06:41:17;84877.47;;;28.99;26.91
40948;BME280;49382;-25.924;28.194;2023-01-29T06:43:43;84880.53;;;29.26;27.15
40948;BME280;49382;-25.924;28.194;2023-01-29T06:46:07;84881.03;;;29.16;28.81
40948;BME280;49382;-25.924;28.194;2023-01-29T06:48:31;84876.03;;;28.58;27.20
40948;BME280;49382;-25.924;28.194;2023-01-29T06:51:02;84879.54;;;29.60;26.38
40948;BME280;49382;-25.924;28.194;2023-01-29T06:53:23;84882.04;;;29.69;28.06
40948;BME280;49382;-25.924;28.194;2023-01-29T06:55:52;84873.90;;;28.14;29.48
40948;BME280;49382;-25.924;28.194;2023-01-29T06:58:14;84866.02;;;28.34;27.78
40948;BME280;49382;-25.924;28.194;2023-01-29T07:00:40;84864.80;;;27.14;27.81
40948;BME280;49382;-25.924;28.194;2023-01-29T07:03:08;84873.03;;;29.77;25.80
40948;BME280;49382;-25.924;28.194;2023-01-29T07:05:32;84876.50;;;29.24;27.03
40948;BME280;49382;-25.924;28.194;2023-01-29T07:07:57;84875.20;;;28.61;29.40
40948;BME280;49382;-25.924;28.194;2023-01-29T07:10:23;84873.99;;;28.42;28.74
40948;BME280;49382;-25.924;28.194;2023-01-29T07:12:49;84877.85;;;30.05;26.20
40948;BME280;49382;-25.924;28.194;2023-01-29T07:15:15;84881.29;;;28.79;25.54
40948;BME280;49382;-25.924;28.194;2023-01-29T07:17:41;84884.15;;;28.87;26.92
40948;BME280;49382;-25.924;28.194;2023-01-29T07:20:07;84878.21;;;28.25;26.96
40948;BME280;49382;-25.924;28.194;2023-01-29T07:22:31;84878.66;;;28.70;27.45
40948;BME280;49382;-25.924;28.194;2023-01-29T07:24:56;84877.61;;;28.85;25.99
40948;BME280;49382;-25.924;28.194;2023-01-29T07:27:22;84880.15;;;28.23;28.17
40948;BME280;49382;-25.924;28.194;2023-01-29T07:29:48;84876.83;;;28.61;27.00
40948;BME280;49382;-25.924;28.194;2023-01-29T07:32:14;84870.12;;;28.22;27.66
40948;BME280;49382;-25.924;28.194;2023-01-29T07:34:39;84866.92;;;28.27;27.47
40948;BME280;49382;-25.924;28.194;2023-01-29T07:37:04;84867.21;;;28.87;26.45
40948;BME280;49382;-25.924;28.194;2023-01-29T07:39:29;84865.91;;;27.94;26.63
40948;BME280;49382;-25.924;28.194;2023-01-29T07:41:56;84867.32;;;27.70;27.24
40948;BME280;49382;-25.924;28.194;2023-01-29T07:44:21;84870.32;;;28.03;27.66
40948;BME280;49382;-25.924;28.194;2023-01-29T07:46:46;84865.93;;;28.04;26.96
40948;BME280;49382;-25.924;28.194;2023-01-29T07:49:12;84862.06;;;28.35;27.31
40948;BME280;49382;-25.924;28.194;2023-01-29T07:51:37;84861.45;;;28.43;28.09
40948;BME280;49382;-25.924;28.194;2023-01-29T07:54:03;84862.67;;;27.83;28.86
40948;BME280;49382;-25.924;28.194;2023-01-29T07:56:28;84864.07;;;28.14;28.56
40948;BME280;49382;-25.924;28.194;2023-01-29T07:58:54;84864.88;;;28.16;30.44
40948;BME280;49382;-25.924;28.194;2023-01-29T08:01:19;84866.02;;;28.04;31.87
40948;BME280;49382;-25.924;28.194;2023-01-29T08:03:44;84868.02;;;28.29;31.07
40948;BME280;49382;-25.924;28.194;2023-01-29T08:06:09;84862.69;;;29.17;29.67
40948;BME280;49382;-25.924;28.194;2023-01-29T08:08:35;84856.11;;;29.61;30.55
40948;BME280;49382;-25.924;28.194;2023-01-29T08:11:02;84852.18;;;29.30;30.15
40948;BME280;49382;-25.924;28.194;2023-01-29T08:13:27;84846.56;;;28.63;28.87
40948;BME280;49382;-25.924;28.194;2023-01-29T08:15:52;84846.41;;;28.62;28.30
40948;BME280;49382;-25.924;28.194;2023-01-29T08:18:18;84854.44;;;29.58;28.72
40948;BME280;49382;-25.924;28.194;2023-01-29T08:20:44;84853.64;;;30.68;26.24
40948;BME280;49382;-25.924;28.194;2023-01-29T08:23:13;84854.30;;;30.43;27.07
40948;BME280;49382;-25.924;28.194;2023-01-29T08:25:36;84845.32;;;28.74;26.74
40948;BME280;49382;-25.924;28.194;2023-01-29T08:28:01;84842.62;;;29.72;26.49
40948;BME280;49382;-25.924;28.194;2023-01-29T08:30:27;84827.04;;;27.88;27.29
40948;BME280;49382;-25.924;28.194;2023-01-29T08:32:52;84821.21;;;28.55;26.71
40948;BME280;49382;-25.924;28.194;2023-01-29T08:35:17;84820.39;;;30.27;25.13
40948;BME280;49382;-25.924;28.194;2023-01-29T08:37:43;84821.96;;;29.93;27.07
40948;BME280;49382;-25.924;28.194;2023-01-29T08:40:10;84821.46;;;29.92;29.46
40948;BME280;49382;-25.924;28.194;2023-01-29T08:42:35;84815.37;;;29.22;26.77
40948;BME280;49382;-25.924;28.194;2023-01-29T08:45:00;84815.59;;;29.52;27.46
40948;BME280;49382;-25.924;28.194;2023-01-29T08:47:26;84811.68;;;28.89;29.07
40948;BME280;49382;-25.924;28.194;2023-01-29T08:49:52;84808.58;;;29.00;27.59
40948;BME280;49382;-25.924;28.194;2023-01-29T08:52:17;84803.12;;;31.00;25.68
40948;BME280;49382;-25.924;28.194;2023-01-29T08:54:43;84802.29;;;31.33;25.42
40948;BME280;49382;-25.924;28.194;2023-01-29T08:57:09;84803.77;;;29.72;27.49
40948;BME280;49382;-25.924;28.194;2023-01-29T08:59:35;84806.57;;;30.60;26.61
40948;BME280;49382;-25.924;28.194;2023-01-29T09:02:00;84796.80;;;29.19;27.44
40948;BME280;49382;-25.924;28.194;2023-01-29T09:04:26;84789.15;;;30.15;26.67
40948;BME280;49382;-25.924;28.194;2023-01-29T09:06:52;84789.20;;;30.51;28.00
40948;BME280;49382;-25.924;28.194;2023-01-29T09:09:18;84783.78;;;30.39;25.37
40948;BME280;49382;-25.924;28.194;2023-01-29T09:11:43;84775.74;;;30.60;23.96
40948;BME280;49382;-25.924;28.194;2023-01-29T09:14:09;84779.17;;;31.13;24.72
40948;BME280;49382;-25.924;28.194;2023-01-29T09:16:34;84773.71;;;30.65;25.24
40948;BME280;49382;-25.924;28.194;2023-01-29T09:19:00;84775.70;;;29.97;25.43
40948;BME280;49382;-25.924;28.194;2023-01-29T09:21:27;84765.90;;;30.63;24.96
40948;BME280;49382;-25.924;28.194;2023-01-29T09:23:52;84763.42;;;30.97;25.55
40948;BME280;49382;-25.924;28.194;2023-01-29T09:26:17;84766.27;;;31.15;28.63
40948;BME280;49382;-25.924;28.194;2023-01-29T09:28:43;84763.75;;;31.76;25.55
40948;BME280;49382;-25.924;28.194;2023-01-29T09:31:09;84764.43;;;31.46;25.33
40948;BME280;49382;-25.924;28.194;2023-01-29T09:33:34;84763.12;;;31.40;24.25
40948;BME280;49382;-25.924;28.194;2023-01-29T09:36:01;84762.06;;;31.21;24.69
40948;BME280;49382;-25.924;28.194;2023-01-29T09:38:25;84759.36;;;31.46;24.10
40948;BME280;49382;-25.924;28.194;2023-01-29T09:40:57;84763.02;;;31.65;24.94
40948;BME280;49382;-25.924;28.194;2023-01-29T09:43:19;84768.55;;;31.31;25.08
40948;BME280;49382;-25.924;28.194;2023-01-29T09:45:49;84764.17;;;32.07;23.19
40948;BME280;49382;-25.924;28.194;2023-01-29T09:48:11;84761.48;;;32.25;22.85
40948;BME280;49382;-25.924;28.194;2023-01-29T09:50:37;84759.99;;;32.03;23.89
40948;BME280;49382;-25.924;28.194;2023-01-29T09:53:04;84763.28;;;32.17;27.18
40948;BME280;49382;-25.924;28.194;2023-01-29T09:55:28;84762.50;;;32.17;24.35
40948;BME280;49382;-25.924;28.194;2023-01-29T09:57:53;84761.00;;;31.68;24.27
40948;BME280;49382;-25.924;28.194;2023-01-29T10:00:21;84755.72;;;31.75;26.76
40948;BME280;49382;-25.924;28.194;2023-01-29T10:03:01;84754.95;;;31.71;25.73
40948;BME280;49382;-25.924;28.194;2023-01-29T10:05:17;84755.33;;;30.38;23.72
40948;BME280;49382;-25.924;28.194;2023-01-29T10:10:09;84754.49;;;32.50;23.03
40948;BME280;49382;-25.924;28.194;2023-01-29T10:12:37;84746.70;;;32.08;21.72
40948;BME280;49382;-25.924;28.194;2023-01-29T10:14:58;84745.03;;;31.81;22.90
40948;BME280;49382;-25.924;28.194;2023-01-29T10:17:29;84741.68;;;30.25;21.20
40948;BME280;49382;-25.924;28.194;2023-01-29T10:19:52;84743.79;;;31.32;22.66
40948;BME280;49382;-25.924;28.194;2023-01-29T10:24:37;84742.45;;;30.83;22.31
40948;BME280;49382;-25.924;28.194;2023-01-29T10:27:01;84750.55;;;31.83;22.28
40948;BME280;49382;-25.924;28.194;2023-01-29T10:29:27;84747.05;;;30.90;22.87
40948;BME280;49382;-25.924;28.194;2023-01-29T10:31:54;84743.43;;;30.54;22.30
40948;BME280;49382;-25.924;28.194;2023-01-29T10:34:23;84740.52;;;31.01;21.91
40948;BME280;49382;-25.924;28.194;2023-01-29T10:36:46;84742.26;;;32.14;21.98
40948;BME280;49382;-25.924;28.194;2023-01-29T10:39:15;84743.55;;;31.16;21.92
40948;BME280;49382;-25.924;28.194;2023-01-29T10:44:09;84738.86;;;29.76;22.44
40948;BME280;49382;-25.924;28.194;2023-01-29T10:46:35;84738.95;;;30.36;23.10
40948;BME280;49382;-25.924;28.194;2023-01-29T10:48:59;84741.43;;;31.56;22.44
40948;BME280;49382;-25.924;28.194;2023-01-29T10:53:54;84740.61;;;31.27;22.71
40948;BME280;49382;-25.924;28.194;2023-01-29T10:56:20;84740.30;;;31.89;21.59
40948;BME280;49382;-25.924;28.194;2023-01-29T10:58:40;84740.36;;;31.35;22.41
40948;BME280;49382;-25.924;28.194;2023-01-29T11:01:00;84738.03;;;31.88;21.91
40948;BME280;49382;-25.924;28.194;2023-01-29T11:03:27;84734.55;;;31.76;22.48
40948;BME280;49382;-25.924;28.194;2023-01-29T11:05:56;84726.74;;;32.31;22.11
40948;BME280;49382;-25.924;28.194;2023-01-29T11:08:20;84720.71;;;31.43;22.36
40948;BME280;49382;-25.924;28.194;2023-01-29T11:10:49;84719.03;;;31.82;21.98
40948;BME280;49382;-25.924;28.194;2023-01-29T11:13:13;84715.03;;;32.03;21.36
40948;BME280;49382;-25.924;28.194;2023-01-29T11:15:34;84711.49;;;32.30;21.58
40948;BME280;49382;-25.924;28.194;2023-01-29T11:18:06;84704.83;;;31.69;21.61
40948;BME280;49382;-25.924;28.194;2023-01-29T11:20:28;84700.35;;;31.97;21.72
40948;BME280;49382;-25.924;28.194;2023-01-29T11:22:54;84695.74;;;31.33;21.53
40948;BME280;49382;-25.924;28.194;2023-01-29T11:25:18;84691.46;;;31.08;23.19
40948;BME280;49382;-25.924;28.194;2023-01-29T11:27:46;84690.34;;;32.28;22.59
40948;BME280;49382;-25.924;28.194;2023-01-29T11:30:16;84685.63;;;31.34;23.40
40948;BME280;49382;-25.924;28.194;2023-01-29T11:32:35;84683.34;;;32.09;22.54
40948;BME280;49382;-25.924;28.194;2023-01-29T11:35:02;84680.57;;;32.49;22.17
40948;BME280;49382;-25.924;28.194;2023-01-29T11:37:31;84674.96;;;32.72;20.74
40948;BME280;49382;-25.924;28.194;2023-01-29T11:39:52;84671.63;;;31.53;21.17
40948;BME280;49382;-25.924;28.194;2023-01-29T11:42:22;84674.17;;;31.92;22.96
40948;BME280;49382;-25.924;28.194;2023-01-29T11:44:43;84661.85;;;32.54;22.34
40948;BME280;49382;-25.924;28.194;2023-01-29T11:47:15;84657.18;;;32.42;22.62
40948;BME280;49382;-25.924;28.194;2023-01-29T11:49:35;84661.79;;;32.62;22.15
40948;BME280;49382;-25.924;28.194;2023-01-29T11:52:02;84659.92;;;32.53;21.89
40948;BME280;49382;-25.924;28.194;2023-01-29T11:54:29;84662.07;;;31.88;22.24
40948;BME280;49382;-25.924;28.194;2023-01-29T11:56:51;84665.63;;;32.54;21.10
40948;BME280;49382;-25.924;28.194;2023-01-29T11:59:32;84662.98;;;32.13;21.26
40948;BME280;49382;-25.924;28.194;2023-01-29T12:01:42;84653.84;;;31.46;20.59
40948;BME280;49382;-25.924;28.194;2023-01-29T12:04:17;84658.01;;;32.04;20.84
40948;BME280;49382;-25.924;28.194;2023-01-29T12:06:35;84654.41;;;31.23;21.58
40948;BME280;49382;-25.924;28.194;2023-01-29T12:09:02;84650.59;;;31.75;22.46
40948;BME280;49382;-25.924;28.194;2023-01-29T12:11:28;84643.10;;;31.72;23.40
40948;BME280;49382;-25.924;28.194;2023-01-29T12:13:54;84633.48;;;31.78;23.02
40948;BME280;49382;-25.924;28.194;2023-01-29T12:16:22;84623.70;;;31.34;23.68
40948;BME280;49382;-25.924;28.194;2023-01-29T12:18:45;84615.37;;;32.35;23.37
40948;BME280;49382;-25.924;28.194;2023-01-29T12:21:16;84604.98;;;32.05;22.57
40948;BME280;49382;-25.924;28.194;2023-01-29T12:23:39;84597.56;;;31.93;22.63
40948;BME280;49382;-25.924;28.194;2023-01-29T12:26:03;84594.13;;;32.59;21.84
40948;BME280;49382;-25.924;28.194;2023-01-29T12:28:38;84594.90;;;31.30;21.61
40948;BME280;49382;-25.924;28.194;2023-01-29T12:30:57;84593.29;;;32.52;20.55
40948;BME280;49382;-25.924;28.194;2023-01-29T12:33:23;84595.18;;;32.85;20.53
40948;BME280;49382;-25.924;28.194;2023-01-29T12:35:46;84591.65;;;32.91;20.84
40948;BME280;49382;-25.924;28.194;2023-01-29T12:38:13;84590.60;;;32.74;21.54
40948;BME280;49382;-25.924;28.194;2023-01-29T12:40:38;84586.64;;;32.73;21.96
40948;BME280;49382;-25.924;28.194;2023-01-29T12:43:03;84578.99;;;32.85;21.96
40948;BME280;49382;-25.924;28.194;2023-01-29T12:45:26;84578.68;;;32.86;21.70